Yukikaze — JD2438 — position and weather

sailwx.info

Track history (hours):
 
Tides and Currents Weather Stations Pressure Air Temp Water Temp Dewpoint Dewpoint Depression Visibility Wind Speed Wind Dir Waves Ship Positions

Yukikaze

Last reported at 2018-Feb-21 05:10 UTC. Time now 2018-Feb-22 22:55 UTC.
Position N 35°31' E 139°46'.

Length 26 m.

MMSI: 431000229.

Date/timePositionNaut miles runAvg speedWind from/ knotsBaromVisibWave heightAir tempDewpointWater temp
2018-Feb-21 05:10N 35°31' E 139°46'0 0.0
2018-Feb-21 05:01N 35°31' E 139°46'0 0.3
2018-Feb-21 04:31N 35°31' E 139°46'0 0.1
2018-Feb-21 04:00N 35°31' E 139°46'0 0.1
2018-Feb-21 03:30N 35°31' E 139°46'2 3.5
2018-Feb-21 03:00N 35°30' E 139°48'3 5.9
2018-Feb-21 02:30N 35°27' E 139°46'2 3.1
2018-Feb-21 02:01N 35°26' E 139°45'0 0.6
2018-Feb-21 01:30N 35°26' E 139°45'0 0.2
2018-Feb-21 01:01N 35°26' E 139°45'0 0.1
2018-Feb-21 00:31N 35°26' E 139°45'0 0.4
2018-Feb-21 00:01N 35°26' E 139°45'0 0.4
2018-Feb-20 23:30N 35°26' E 139°45'0 0.2
2018-Feb-20 23:01N 35°26' E 139°45'4 8.1
2018-Feb-20 22:31N 35°22' E 139°45'611.2
2018-Feb-20 22:00N 35°17' E 139°46'510.3
2018-Feb-20 21:30N 35°12' E 139°47'2 3.1
2018-Feb-20 21:00N 35°10' E 139°47'612.7
2018-Feb-20 20:30N 35°16' E 139°45'714.6
2018-Feb-20 20:00N 35°23' E 139°42'5 9.4
2018-Feb-20 19:30N 35°28' E 139°40'1 2.7
2018-Feb-20 19:00N 35°29' E 139°40'  
2018-Feb-18 08:01N 35°29' E 139°40'0 0.8
2018-Feb-18 08:01N 35°29' E 139°40'713.6
2018-Feb-18 07:31N 35°22' E 139°41'816.0
2018-Feb-18 07:01N 35°15' E 139°45'1 2.8
2018-Feb-18 06:30N 35°16' E 139°46'612.3
2018-Feb-18 06:00N 35°22' E 139°42'3 6.3
2018-Feb-18 05:30N 35°24' E 139°40'0 0.7
2018-Feb-18 05:01N 35°24' E 139°39'3 6.2
2018-Feb-18 04:30N 35°27' E 139°40'2 3.1
2018-Feb-18 04:00N 35°29' E 139°40'0 0.0
2018-Feb-18 03:30N 35°29' E 139°40'0 0.0
2018-Feb-17 06:18N 35°29' E 139°40'413.2
2018-Feb-17 06:01N 35°25' E 139°42'814.9
2018-Feb-17 05:30N 35°18' E 139°43'510.5
2018-Feb-17 05:00N 35°13' E 139°46'612.3
2018-Feb-17 04:30N 35°19' E 139°44'612.0
2018-Feb-17 04:00N 35°25' E 139°43'713.4
2018-Feb-17 03:30N 35°29' E 139°50'510.9
2018-Feb-17 03:00N 35°29' E 139°56'1 1.7
2018-Feb-17 02:29N 35°29' E 139°57'0 0.6
2018-Feb-17 02:00N 35°29' E 139°58'5 9.2
2018-Feb-17 01:30N 35°29' E 139°52'714.3
2018-Feb-17 01:01N 35°28' E 139°43'3 6.1
2018-Feb-17 00:31N 35°29' E 139°40'0 0.0
2018-Feb-17 00:01N 35°29' E 139°40'0 0.0
2018-Feb-15 03:57N 35°29' E 139°40'2 5.2
2018-Feb-15 03:31N 35°27' E 139°40'4 7.6
2018-Feb-15 03:01N 35°26' E 139°44'4 8.4
2018-Feb-15 02:30N 35°22' E 139°45'510.4
2018-Feb-15 02:01N 35°17' E 139°46'510.6
2018-Feb-15 01:30N 35°11' E 139°47'1 2.9
2018-Feb-15 01:00N 35°10' E 139°47'612.5
2018-Feb-15 00:30N 35°16' E 139°45'815.7
2018-Feb-15 00:00N 35°24' E 139°42'611.2
2018-Feb-14 23:30N 35°29' E 139°40'0 0.1
2018-Feb-14 23:00N 35°29' E 139°40'0 0.0
2018-Feb-14 06:44N 35°29' E 139°40'311.5
2018-Feb-14 06:31N 35°27' E 139°41'815.6
2018-Feb-14 06:00N 35°19' E 139°43'714.5
2018-Feb-14 05:30N 35°12' E 139°46'510.1
2018-Feb-14 05:01N 35°17' E 139°45'612.7
2018-Feb-14 04:31N 35°23' E 139°42'2 4.2
2018-Feb-14 04:00N 35°24' E 139°44'510.7
2018-Feb-14 03:31N 35°19' E 139°43'714.7
2018-Feb-14 03:00N 35°12' E 139°46'611.3
2018-Feb-14 02:30N 35°18' E 139°44'612.3
2018-Feb-14 02:00N 35°24' E 139°43'713.7
2018-Feb-14 01:30N 35°28' E 139°49'612.0
2018-Feb-14 01:00N 35°29' E 139°56'1 1.7
2018-Feb-14 00:29N 35°29' E 139°57'0 0.5
2018-Feb-13 23:57N 35°29' E 139°58'4 8.7
2018-Feb-13 23:30N 35°29' E 139°53'714.6
2018-Feb-13 23:01N 35°28' E 139°44'3 6.9
2018-Feb-13 22:31N 35°29' E 139°40'0 0.0
2018-Feb-13 22:00N 35°29' E 139°40'0 0.0
2018-Feb-13 01:16N 35°29' E 139°40'310.2
2018-Feb-13 01:00N 35°28' E 139°43'815.3
2018-Feb-13 00:30N 35°30' E 139°52'2 3.3
2018-Feb-12 23:58N 35°29' E 139°54'0 0.2
2018-Feb-12 23:29N 35°29' E 139°54'0 0.3
2018-Feb-12 22:55N 35°29' E 139°54'0 0.4
2018-Feb-12 22:30N 35°29' E 139°54'0 0.0
2018-Feb-12 22:01N 35°29' E 139°54'0 0.5
2018-Feb-12 21:30N 35°29' E 139°54'0 0.0
2018-Feb-12 20:58N 35°29' E 139°54'0 0.1
2018-Feb-12 20:29N 35°29' E 139°54'0 0.1
2018-Feb-12 19:58N 35°29' E 139°54'0 0.1
2018-Feb-12 19:31N 35°30' E 139°54'0 0.2
2018-Feb-12 19:00N 35°29' E 139°54'0 0.4
2018-Feb-12 18:30N 35°30' E 139°54'0 0.1
2018-Feb-12 18:00N 35°30' E 139°54'0 0.1
2018-Feb-12 17:29N 35°30' E 139°54'0 0.2
2018-Feb-12 17:00N 35°29' E 139°54'0 0.3
2018-Feb-12 16:29N 35°29' E 139°54'0 0.1
2018-Feb-12 16:00N 35°30' E 139°54'0 0.3
2018-Feb-12 15:30N 35°29' E 139°54'0 0.3
2018-Feb-12 15:00N 35°30' E 139°54'0 0.5
2018-Feb-12 14:30N 35°30' E 139°54'0 0.9
2018-Feb-12 14:00N 35°29' E 139°54'0 0.0
2018-Feb-12 13:30N 35°30' E 139°54'0 0.5
2018-Feb-12 13:00N 35°30' E 139°54'0 0.2
2018-Feb-12 12:30N 35°30' E 139°54'0 0.3
2018-Feb-12 12:01N 35°29' E 139°54'0 0.2
2018-Feb-12 11:30N 35°30' E 139°54'0 0.5
2018-Feb-12 11:00N 35°29' E 139°54'0 0.4
2018-Feb-12 10:30N 35°29' E 139°54'0 0.4
2018-Feb-12 10:00N 35°29' E 139°54'0 0.7
2018-Feb-12 09:30N 35°29' E 139°54'0 0.3
2018-Feb-12 09:00N 35°29' E 139°54'0 0.5
2018-Feb-12 08:31N 35°30' E 139°54'0 0.6
2018-Feb-12 07:57N 35°29' E 139°54'0 0.6
2018-Feb-12 07:30N 35°30' E 139°54'0 0.6
2018-Feb-12 07:00N 35°29' E 139°54'0 0.6
2018-Feb-12 06:30N 35°29' E 139°54'0 0.4
2018-Feb-12 06:01N 35°29' E 139°54'0 0.2
2018-Feb-12 05:31N 35°29' E 139°54'0 0.1
2018-Feb-12 05:00N 35°29' E 139°54'0 0.3
2018-Feb-12 04:30N 35°29' E 139°54'0 0.3
2018-Feb-12 04:00N 35°30' E 139°54'0 0.4
2018-Feb-12 03:31N 35°30' E 139°54'0 0.5
2018-Feb-12 03:01N 35°30' E 139°54'0 0.4
2018-Feb-12 02:30N 35°30' E 139°54'0 0.3
2018-Feb-12 02:00N 35°30' E 139°54'0 0.3
2018-Feb-12 01:30N 35°30' E 139°54'2 4.8
2018-Feb-12 00:59N 35°29' E 139°57'2 3.3
2018-Feb-12 00:30N 35°27' E 139°58'0 0.0
2018-Feb-12 00:01N 35°27' E 139°58'2 3.1
2018-Feb-11 23:30N 35°29' E 139°58'4 7.1
2018-Feb-11 23:00N 35°29' E 139°53'815.4
2018-Feb-11 22:30N 35°28' E 139°44'3 6.4
2018-Feb-11 22:00N 35°29' E 139°40'0 0.0
2018-Feb-11 21:30N 35°29' E 139°40'0 0.0
2018-Feb-11 06:47N 35°29' E 139°40'310.5
2018-Feb-11 06:31N 35°27' E 139°43'3 6.4
2018-Feb-11 06:01N 35°28' E 139°47'0 0.7
2018-Feb-11 05:30N 35°28' E 139°47'  
Track history (hours):
 
Tides and Currents Weather Stations Pressure Air Temp Water Temp Dewpoint Dewpoint Depression Visibility Wind Speed Wind Dir Waves Ship Positions

Yukikaze

Last reported at 2018-Feb-21 05:10 UTC. Time now 2018-Feb-22 22:55 UTC.
Position N 35°31' E 139°46'.

Length 26 m.

MMSI: 431000229.

Date/timePositionNaut miles runAvg speedWind from/ knotsBaromVisibWave heightAir tempDewpointWater temp
2018-Feb-21 05:10N 35°31' E 139°46'0 0.0
2018-Feb-21 05:01N 35°31' E 139°46'0 0.3
2018-Feb-21 04:31N 35°31' E 139°46'0 0.1
2018-Feb-21 04:00N 35°31' E 139°46'0 0.1
2018-Feb-21 03:30N 35°31' E 139°46'2 3.5
2018-Feb-21 03:00N 35°30' E 139°48'3 5.9
2018-Feb-21 02:30N 35°27' E 139°46'2 3.1
2018-Feb-21 02:01N 35°26' E 139°45'0 0.6
2018-Feb-21 01:30N 35°26' E 139°45'0 0.2
2018-Feb-21 01:01N 35°26' E 139°45'0 0.1
2018-Feb-21 00:31N 35°26' E 139°45'0 0.4
2018-Feb-21 00:01N 35°26' E 139°45'0 0.4
2018-Feb-20 23:30N 35°26' E 139°45'0 0.2
2018-Feb-20 23:01N 35°26' E 139°45'4 8.1
2018-Feb-20 22:31N 35°22' E 139°45'611.2
2018-Feb-20 22:00N 35°17' E 139°46'510.3
2018-Feb-20 21:30N 35°12' E 139°47'2 3.1
2018-Feb-20 21:00N 35°10' E 139°47'612.7
2018-Feb-20 20:30N 35°16' E 139°45'714.6
2018-Feb-20 20:00N 35°23' E 139°42'5 9.4
2018-Feb-20 19:30N 35°28' E 139°40'1 2.7
2018-Feb-20 19:00N 35°29' E 139°40'  
2018-Feb-18 08:01N 35°29' E 139°40'0 0.8
2018-Feb-18 08:01N 35°29' E 139°40'713.6
2018-Feb-18 07:31N 35°22' E 139°41'816.0
2018-Feb-18 07:01N 35°15' E 139°45'1 2.8
2018-Feb-18 06:30N 35°16' E 139°46'612.3
2018-Feb-18 06:00N 35°22' E 139°42'3 6.3
2018-Feb-18 05:30N 35°24' E 139°40'0 0.7
2018-Feb-18 05:01N 35°24' E 139°39'3 6.2
2018-Feb-18 04:30N 35°27' E 139°40'2 3.1
2018-Feb-18 04:00N 35°29' E 139°40'0 0.0
2018-Feb-18 03:30N 35°29' E 139°40'0 0.0
2018-Feb-17 06:18N 35°29' E 139°40'413.2
2018-Feb-17 06:01N 35°25' E 139°42'814.9
2018-Feb-17 05:30N 35°18' E 139°43'510.5
2018-Feb-17 05:00N 35°13' E 139°46'612.3
2018-Feb-17 04:30N 35°19' E 139°44'612.0
2018-Feb-17 04:00N 35°25' E 139°43'713.4
2018-Feb-17 03:30N 35°29' E 139°50'510.9
2018-Feb-17 03:00N 35°29' E 139°56'1 1.7
2018-Feb-17 02:29N 35°29' E 139°57'0 0.6
2018-Feb-17 02:00N 35°29' E 139°58'5 9.2
2018-Feb-17 01:30N 35°29' E 139°52'714.3
2018-Feb-17 01:01N 35°28' E 139°43'3 6.1
2018-Feb-17 00:31N 35°29' E 139°40'0 0.0
2018-Feb-17 00:01N 35°29' E 139°40'0 0.0
2018-Feb-15 03:57N 35°29' E 139°40'2 5.2
2018-Feb-15 03:31N 35°27' E 139°40'4 7.6
2018-Feb-15 03:01N 35°26' E 139°44'4 8.4
2018-Feb-15 02:30N 35°22' E 139°45'510.4
2018-Feb-15 02:01N 35°17' E 139°46'510.6
2018-Feb-15 01:30N 35°11' E 139°47'1 2.9
2018-Feb-15 01:00N 35°10' E 139°47'612.5
2018-Feb-15 00:30N 35°16' E 139°45'815.7
2018-Feb-15 00:00N 35°24' E 139°42'611.2
2018-Feb-14 23:30N 35°29' E 139°40'0 0.1
2018-Feb-14 23:00N 35°29' E 139°40'0 0.0
2018-Feb-14 06:44N 35°29' E 139°40'311.5
2018-Feb-14 06:31N 35°27' E 139°41'815.6
2018-Feb-14 06:00N 35°19' E 139°43'714.5
2018-Feb-14 05:30N 35°12' E 139°46'510.1
2018-Feb-14 05:01N 35°17' E 139°45'612.7
2018-Feb-14 04:31N 35°23' E 139°42'2 4.2
2018-Feb-14 04:00N 35°24' E 139°44'510.7
2018-Feb-14 03:31N 35°19' E 139°43'714.7
2018-Feb-14 03:00N 35°12' E 139°46'611.3
2018-Feb-14 02:30N 35°18' E 139°44'612.3
2018-Feb-14 02:00N 35°24' E 139°43'713.7
2018-Feb-14 01:30N 35°28' E 139°49'612.0
2018-Feb-14 01:00N 35°29' E 139°56'1 1.7
2018-Feb-14 00:29N 35°29' E 139°57'0 0.5
2018-Feb-13 23:57N 35°29' E 139°58'4 8.7
2018-Feb-13 23:30N 35°29' E 139°53'714.6
2018-Feb-13 23:01N 35°28' E 139°44'3 6.9
2018-Feb-13 22:31N 35°29' E 139°40'0 0.0
2018-Feb-13 22:00N 35°29' E 139°40'0 0.0
2018-Feb-13 01:16N 35°29' E 139°40'310.2
2018-Feb-13 01:00N 35°28' E 139°43'815.3
2018-Feb-13 00:30N 35°30' E 139°52'2 3.3
2018-Feb-12 23:58N 35°29' E 139°54'0 0.2
2018-Feb-12 23:29N 35°29' E 139°54'0 0.3
2018-Feb-12 22:55N 35°29' E 139°54'0 0.4
2018-Feb-12 22:30N 35°29' E 139°54'0 0.0
2018-Feb-12 22:01N 35°29' E 139°54'0 0.5
2018-Feb-12 21:30N 35°29' E 139°54'0 0.0
2018-Feb-12 20:58N 35°29' E 139°54'0 0.1
2018-Feb-12 20:29N 35°29' E 139°54'0 0.1
2018-Feb-12 19:58N 35°29' E 139°54'0 0.1
2018-Feb-12 19:31N 35°30' E 139°54'0 0.2
2018-Feb-12 19:00N 35°29' E 139°54'0 0.4
2018-Feb-12 18:30N 35°30' E 139°54'0 0.1
2018-Feb-12 18:00N 35°30' E 139°54'0 0.1
2018-Feb-12 17:29N 35°30' E 139°54'0 0.2
2018-Feb-12 17:00N 35°29' E 139°54'0 0.3
2018-Feb-12 16:29N 35°29' E 139°54'0 0.1
2018-Feb-12 16:00N 35°30' E 139°54'0 0.3
2018-Feb-12 15:30N 35°29' E 139°54'0 0.3
2018-Feb-12 15:00N 35°30' E 139°54'0 0.5
2018-Feb-12 14:30N 35°30' E 139°54'0 0.9
2018-Feb-12 14:00N 35°29' E 139°54'0 0.0
2018-Feb-12 13:30N 35°30' E 139°54'0 0.5
2018-Feb-12 13:00N 35°30' E 139°54'0 0.2
2018-Feb-12 12:30N 35°30' E 139°54'0 0.3
2018-Feb-12 12:01N 35°29' E 139°54'0 0.2
2018-Feb-12 11:30N 35°30' E 139°54'0 0.5
2018-Feb-12 11:00N 35°29' E 139°54'0 0.4
2018-Feb-12 10:30N 35°29' E 139°54'0 0.4
2018-Feb-12 10:00N 35°29' E 139°54'0 0.7
2018-Feb-12 09:30N 35°29' E 139°54'0 0.3
2018-Feb-12 09:00N 35°29' E 139°54'0 0.5
2018-Feb-12 08:31N 35°30' E 139°54'0 0.6
2018-Feb-12 07:57N 35°29' E 139°54'0 0.6
2018-Feb-12 07:30N 35°30' E 139°54'0 0.6
2018-Feb-12 07:00N 35°29' E 139°54'0 0.6
2018-Feb-12 06:30N 35°29' E 139°54'0 0.4
2018-Feb-12 06:01N 35°29' E 139°54'0 0.2
2018-Feb-12 05:31N 35°29' E 139°54'0 0.1
2018-Feb-12 05:00N 35°29' E 139°54'0 0.3
2018-Feb-12 04:30N 35°29' E 139°54'0 0.3
2018-Feb-12 04:00N 35°30' E 139°54'0 0.4
2018-Feb-12 03:31N 35°30' E 139°54'0 0.5
2018-Feb-12 03:01N 35°30' E 139°54'0 0.4
2018-Feb-12 02:30N 35°30' E 139°54'0 0.3
2018-Feb-12 02:00N 35°30' E 139°54'0 0.3
2018-Feb-12 01:30N 35°30' E 139°54'2 4.8
2018-Feb-12 00:59N 35°29' E 139°57'2 3.3
2018-Feb-12 00:30N 35°27' E 139°58'0 0.0
2018-Feb-12 00:01N 35°27' E 139°58'2 3.1
2018-Feb-11 23:30N 35°29' E 139°58'4 7.1
2018-Feb-11 23:00N 35°29' E 139°53'815.4
2018-Feb-11 22:30N 35°28' E 139°44'3 6.4
2018-Feb-11 22:00N 35°29' E 139°40'0 0.0
2018-Feb-11 21:30N 35°29' E 139°40'0 0.0
2018-Feb-11 06:47N 35°29' E 139°40'310.5
2018-Feb-11 06:31N 35°27' E 139°43'3 6.4
2018-Feb-11 06:01N 35°28' E 139°47'0 0.7
2018-Feb-11 05:30N 35°28' E 139°47'  

Dump ship's entire track history